sensor_id;sensor_type;location;lat;lon;timestamp;temperature;humidity
66708;DHT22;53622;0.000;0.000;2023-11-19T00:00:32;21.10;52.20
66708;DHT22;53622;0.000;0.000;2023-11-19T00:03:03;21.10;52.20
66708;DHT22;53622;0.000;0.000;2023-11-19T00:05:32;21.00;52.10
66708;DHT22;53622;0.000;0.000;2023-11-19T00:08:01;21.00;52.10
66708;DHT22;53622;0.000;0.000;2023-11-19T00:10:30;21.00;52.10
66708;DHT22;53622;0.000;0.000;2023-11-19T00:12:59;21.00;52.10
66708;DHT22;53622;0.000;0.000;2023-11-19T00:15:28;21.00;52.10
66708;DHT22;53622;0.000;0.000;2023-11-19T00:17:56;21.00;52.10
66708;DHT22;53622;0.000;0.000;2023-11-19T00:20:30;21.00;52.70
66708;DHT22;53622;0.000;0.000;2023-11-19T00:22:58;20.90;52.20
66708;DHT22;53622;0.000;0.000;2023-11-19T00:25:28;21.00;52.10
66708;DHT22;53622;0.000;0.000;2023-11-19T00:27:57;21.00;52.10
66708;DHT22;53622;0.000;0.000;2023-11-19T00:30:27;21.00;52.10
66708;DHT22;53622;0.000;0.000;2023-11-19T00:32:55;20.90;52.10
66708;DHT22;53622;0.000;0.000;2023-11-19T00:35:24;20.90;52.10
66708;DHT22;53622;0.000;0.000;2023-11-19T00:37:54;20.90;52.00
66708;DHT22;53622;0.000;0.000;2023-11-19T00:40:23;20.90;52.10
66708;DHT22;53622;0.000;0.000;2023-11-19T00:42:51;20.90;52.00
66708;DHT22;53622;0.000;0.000;2023-11-19T00:45:20;20.90;52.00
66708;DHT22;53622;0.000;0.000;2023-11-19T00:47:49;20.90;52.20
66708;DHT22;53622;0.000;0.000;2023-11-19T00:50:17;20.90;52.10
66708;DHT22;53622;0.000;0.000;2023-11-19T00:52:46;20.90;52.10
66708;DHT22;53622;0.000;0.000;2023-11-19T00:55:17;20.90;52.00
66708;DHT22;53622;0.000;0.000;2023-11-19T00:57:45;20.90;52.10
66708;DHT22;53622;0.000;0.000;2023-11-19T01:00:14;20.90;52.10
66708;DHT22;53622;0.000;0.000;2023-11-19T01:02:47;20.90;52.10
66708;DHT22;53622;0.000;0.000;2023-11-19T01:05:19;20.90;52.00
66708;DHT22;53622;0.000;0.000;2023-11-19T01:07:51;20.80;52.10
66708;DHT22;53622;0.000;0.000;2023-11-19T01:10:23;20.80;52.00
66708;DHT22;53622;0.000;0.000;2023-11-19T01:12:53;20.80;52.10
66708;DHT22;53622;0.000;0.000;2023-11-19T01:15:22;20.80;52.10
66708;DHT22;53622;0.000;0.000;2023-11-19T01:17:51;20.80;52.00
66708;DHT22;53622;0.000;0.000;2023-11-19T01:20:20;20.80;52.10
66708;DHT22;53622;0.000;0.000;2023-11-19T01:22:49;20.80;52.10
66708;DHT22;53622;0.000;0.000;2023-11-19T01:25:18;20.80;52.00
66708;DHT22;53622;0.000;0.000;2023-11-19T01:27:49;20.80;52.10
66708;DHT22;53622;0.000;0.000;2023-11-19T01:30:17;20.80;52.00
66708;DHT22;53622;0.000;0.000;2023-11-19T01:32:49;20.80;52.00
66708;DHT22;53622;0.000;0.000;2023-11-19T01:35:18;20.70;52.40
66708;DHT22;53622;0.000;0.000;2023-11-19T01:37:46;20.70;52.00
66708;DHT22;53622;0.000;0.000;2023-11-19T01:40:15;20.70;52.00
66708;DHT22;53622;0.000;0.000;2023-11-19T01:42:49;20.70;52.10
66708;DHT22;53622;0.000;0.000;2023-11-19T01:45:27;20.70;52.10
66708;DHT22;53622;0.000;0.000;2023-11-19T01:47:59;20.70;52.00
66708;DHT22;53622;0.000;0.000;2023-11-19T01:50:29;20.70;52.10
66708;DHT22;53622;0.000;0.000;2023-11-19T01:52:58;20.70;52.10
66708;DHT22;53622;0.000;0.000;2023-11-19T01:55:27;20.70;52.10
66708;DHT22;53622;0.000;0.000;2023-11-19T01:58:00;20.70;52.80
66708;DHT22;53622;0.000;0.000;2023-11-19T02:00:30;20.70;52.00
66708;DHT22;53622;0.000;0.000;2023-11-19T02:03:01;20.70;52.10
66708;DHT22;53622;0.000;0.000;2023-11-19T02:05:31;20.60;52.00
66708;DHT22;53622;0.000;0.000;2023-11-19T02:08:00;20.60;52.10
66708;DHT22;53622;0.000;0.000;2023-11-19T02:10:30;20.60;52.10
66708;DHT22;53622;0.000;0.000;2023-11-19T02:13:02;20.60;52.10
66708;DHT22;53622;0.000;0.000;2023-11-19T02:15:33;20.60;52.10
66708;DHT22;53622;0.000;0.000;2023-11-19T02:18:19;20.60;52.10
66708;DHT22;53622;0.000;0.000;2023-11-19T02:20:49;20.60;52.20
66708;DHT22;53622;0.000;0.000;2023-11-19T02:23:19;20.60;52.20
66708;DHT22;53622;0.000;0.000;2023-11-19T02:25:59;20.60;52.20
66708;DHT22;53622;0.000;0.000;2023-11-19T02:28:30;20.60;52.20
66708;DHT22;53622;0.000;0.000;2023-11-19T02:31:00;20.60;52.30
66708;DHT22;53622;0.000;0.000;2023-11-19T02:33:29;20.60;52.10
66708;DHT22;53622;0.000;0.000;2023-11-19T02:35:57;20.60;52.10
66708;DHT22;53622;0.000;0.000;2023-11-19T02:38:26;20.60;52.20
66708;DHT22;53622;0.000;0.000;2023-11-19T02:40:55;20.50;52.00
66708;DHT22;53622;0.000;0.000;2023-11-19T02:43:23;20.50;52.10
66708;DHT22;53622;0.000;0.000;2023-11-19T02:45:53;20.50;52.10
66708;DHT22;53622;0.000;0.000;2023-11-19T02:48:23;20.50;52.10
66708;DHT22;53622;0.000;0.000;2023-11-19T02:50:52;20.50;52.10
66708;DHT22;53622;0.000;0.000;2023-11-19T02:53:21;20.50;52.10
66708;DHT22;53622;0.000;0.000;2023-11-19T02:55:50;20.50;52.10
66708;DHT22;53622;0.000;0.000;2023-11-19T02:58:19;20.50;52.10
66708;DHT22;53622;0.000;0.000;2023-11-19T03:00:53;20.50;52.20
66708;DHT22;53622;0.000;0.000;2023-11-19T03:03:25;20.50;52.00
66708;DHT22;53622;0.000;0.000;2023-11-19T03:05:58;20.50;52.10
66708;DHT22;53622;0.000;0.000;2023-11-19T03:08:27;20.50;52.00
66708;DHT22;53622;0.000;0.000;2023-11-19T03:10:57;20.50;52.00
66708;DHT22;53622;0.000;0.000;2023-11-19T03:13:26;20.50;52.00
66708;DHT22;53622;0.000;0.000;2023-11-19T03:15:56;20.40;51.90
66708;DHT22;53622;0.000;0.000;2023-11-19T03:18:25;20.50;52.00
66708;DHT22;53622;0.000;0.000;2023-11-19T03:20:54;20.40;52.10
66708;DHT22;53622;0.000;0.000;2023-11-19T03:23:23;20.40;52.00
66708;DHT22;53622;0.000;0.000;2023-11-19T03:25:51;20.40;52.00
66708;DHT22;53622;0.000;0.000;2023-11-19T03:28:21;20.40;52.00
66708;DHT22;53622;0.000;0.000;2023-11-19T03:30:50;20.40;51.90
66708;DHT22;53622;0.000;0.000;2023-11-19T03:33:21;20.40;52.00
66708;DHT22;53622;0.000;0.000;2023-11-19T03:35:50;20.40;52.00
66708;DHT22;53622;0.000;0.000;2023-11-19T03:38:19;20.40;52.00
66708;DHT22;53622;0.000;0.000;2023-11-19T03:40:48;20.40;52.00
66708;DHT22;53622;0.000;0.000;2023-11-19T03:43:17;20.40;52.00
66708;DHT22;53622;0.000;0.000;2023-11-19T03:45:46;20.40;52.00
66708;DHT22;53622;0.000;0.000;2023-11-19T03:48:15;20.40;52.10
66708;DHT22;53622;0.000;0.000;2023-11-19T03:50:46;20.40;52.00
66708;DHT22;53622;0.000;0.000;2023-11-19T03:53:14;20.40;52.10
66708;DHT22;53622;0.000;0.000;2023-11-19T03:55:43;20.30;51.90
66708;DHT22;53622;0.000;0.000;2023-11-19T03:58:11;20.30;52.00
66708;DHT22;53622;0.000;0.000;2023-11-19T04:00:41;20.30;52.00
66708;DHT22;53622;0.000;0.000;2023-11-19T04:03:09;20.30;52.10
66708;DHT22;53622;0.000;0.000;2023-11-19T04:05:38;20.30;52.00
66708;DHT22;53622;0.000;0.000;2023-11-19T04:08:08;20.30;52.00
66708;DHT22;53622;0.000;0.000;2023-11-19T04:10:37;20.30;52.00
66708;DHT22;53622;0.000;0.000;2023-11-19T04:13:06;20.30;52.00
66708;DHT22;53622;0.000;0.000;2023-11-19T04:15:34;20.30;52.30
66708;DHT22;53622;0.000;0.000;2023-11-19T04:18:03;20.30;52.10
66708;DHT22;53622;0.000;0.000;2023-11-19T04:20:32;20.30;51.90
66708;DHT22;53622;0.000;0.000;2023-11-19T04:23:00;20.30;52.00
66708;DHT22;53622;0.000;0.000;2023-11-19T04:25:30;20.30;52.10
66708;DHT22;53622;0.000;0.000;2023-11-19T04:27:59;20.30;52.00
66708;DHT22;53622;0.000;0.000;2023-11-19T04:30:28;20.30;52.00
66708;DHT22;53622;0.000;0.000;2023-11-19T04:32:59;20.30;52.10
66708;DHT22;53622;0.000;0.000;2023-11-19T04:35:27;20.20;52.10
66708;DHT22;53622;0.000;0.000;2023-11-19T04:37:56;20.30;52.10
66708;DHT22;53622;0.000;0.000;2023-11-19T04:40:25;20.30;52.10
66708;DHT22;53622;0.000;0.000;2023-11-19T04:42:55;20.20;52.00
66708;DHT22;53622;0.000;0.000;2023-11-19T04:45:24;20.20;52.00
66708;DHT22;53622;0.000;0.000;2023-11-19T04:47:53;20.20;52.60
66708;DHT22;53622;0.000;0.000;2023-11-19T04:50:22;20.20;51.90
66708;DHT22;53622;0.000;0.000;2023-11-19T04:52:50;20.20;52.00
66708;DHT22;53622;0.000;0.000;2023-11-19T04:55:19;20.20;52.10
66708;DHT22;53622;0.000;0.000;2023-11-19T04:57:48;20.20;52.00
66708;DHT22;53622;0.000;0.000;2023-11-19T05:00:18;20.20;52.00
66708;DHT22;53622;0.000;0.000;2023-11-19T05:02:50;20.20;52.00
66708;DHT22;53622;0.000;0.000;2023-11-19T05:05:19;20.20;51.90
66708;DHT22;53622;0.000;0.000;2023-11-19T05:07:48;20.20;51.90
66708;DHT22;53622;0.000;0.000;2023-11-19T05:10:16;20.20;52.00
66708;DHT22;53622;0.000;0.000;2023-11-19T05:12:45;20.20;51.90
66708;DHT22;53622;0.000;0.000;2023-11-19T05:15:14;20.20;52.20
66708;DHT22;53622;0.000;0.000;2023-11-19T05:17:44;20.20;52.10
66708;DHT22;53622;0.000;0.000;2023-11-19T05:20:13;20.10;52.10
66708;DHT22;53622;0.000;0.000;2023-11-19T05:22:43;20.10;52.00
66708;DHT22;53622;0.000;0.000;2023-11-19T05:25:13;20.10;51.90
66708;DHT22;53622;0.000;0.000;2023-11-19T05:27:41;20.10;52.10
66708;DHT22;53622;0.000;0.000;2023-11-19T05:30:11;20.10;52.20
66708;DHT22;53622;0.000;0.000;2023-11-19T05:32:39;20.10;52.10
66708;DHT22;53622;0.000;0.000;2023-11-19T05:35:10;20.10;51.90
66708;DHT22;53622;0.000;0.000;2023-11-19T05:37:39;20.10;52.00
66708;DHT22;53622;0.000;0.000;2023-11-19T05:40:09;20.10;52.00
66708;DHT22;53622;0.000;0.000;2023-11-19T05:42:42;20.10;52.00
66708;DHT22;53622;0.000;0.000;2023-11-19T05:45:12;20.10;52.00
66708;DHT22;53622;0.000;0.000;2023-11-19T05:47:41;20.10;52.10
66708;DHT22;53622;0.000;0.000;2023-11-19T05:50:12;20.10;52.00
66708;DHT22;53622;0.000;0.000;2023-11-19T05:52:41;20.10;52.10
66708;DHT22;53622;0.000;0.000;2023-11-19T05:55:10;20.10;52.10
66708;DHT22;53622;0.000;0.000;2023-11-19T05:57:40;20.10;52.00
66708;DHT22;53622;0.000;0.000;2023-11-19T06:00:12;20.00;52.00
66708;DHT22;53622;0.000;0.000;2023-11-19T06:02:43;20.00;52.10
66708;DHT22;53622;0.000;0.000;2023-11-19T06:05:13;20.10;52.10
66708;DHT22;53622;0.000;0.000;2023-11-19T06:07:42;20.00;52.10
66708;DHT22;53622;0.000;0.000;2023-11-19T06:10:10;20.00;52.10
66708;DHT22;53622;0.000;0.000;2023-11-19T06:12:41;20.00;52.00
66708;DHT22;53622;0.000;0.000;2023-11-19T06:15:10;20.00;51.90
66708;DHT22;53622;0.000;0.000;2023-11-19T06:17:39;20.00;52.00
66708;DHT22;53622;0.000;0.000;2023-11-19T06:20:08;20.00;52.00
66708;DHT22;53622;0.000;0.000;2023-11-19T06:22:40;20.00;51.90
66708;DHT22;53622;0.000;0.000;2023-11-19T06:25:11;20.00;52.00
66708;DHT22;53622;0.000;0.000;2023-11-19T06:27:42;20.00;51.90
66708;DHT22;53622;0.000;0.000;2023-11-19T06:30:11;20.00;51.90
66708;DHT22;53622;0.000;0.000;2023-11-19T06:32:40;20.00;52.00
66708;DHT22;53622;0.000;0.000;2023-11-19T06:35:09;20.00;52.00
66708;DHT22;53622;0.000;0.000;2023-11-19T06:37:39;19.90;51.60
66708;DHT22;53622;0.000;0.000;2023-11-19T06:40:10;19.90;51.30
66708;DHT22;53622;0.000;0.000;2023-11-19T06:42:39;20.00;51.00
66708;DHT22;53622;0.000;0.000;2023-11-19T06:45:08;19.90;50.90
66708;DHT22;53622;0.000;0.000;2023-11-19T06:47:37;19.90;50.80
66708;DHT22;53622;0.000;0.000;2023-11-19T06:50:07;19.90;50.60
66708;DHT22;53622;0.000;0.000;2023-11-19T06:52:36;19.90;50.50
66708;DHT22;53622;0.000;0.000;2023-11-19T06:55:06;19.90;50.40
66708;DHT22;53622;0.000;0.000;2023-11-19T06:57:37;19.90;50.40
66708;DHT22;53622;0.000;0.000;2023-11-19T07:00:06;19.90;50.90
66708;DHT22;53622;0.000;0.000;2023-11-19T07:02:36;19.80;50.80
66708;DHT22;53622;0.000;0.000;2023-11-19T07:05:05;19.80;50.80
66708;DHT22;53622;0.000;0.000;2023-11-19T07:07:35;19.90;50.90
66708;DHT22;53622;0.000;0.000;2023-11-19T07:10:05;20.20;51.00
66708;DHT22;53622;0.000;0.000;2023-11-19T07:12:38;20.50;50.70
66708;DHT22;53622;0.000;0.000;2023-11-19T07:15:07;20.80;50.30
66708;DHT22;53622;0.000;0.000;2023-11-19T07:17:38;21.00;50.00
66708;DHT22;53622;0.000;0.000;2023-11-19T07:20:08;21.20;49.90
66708;DHT22;53622;0.000;0.000;2023-11-19T07:22:43;21.20;50.50
66708;DHT22;53622;0.000;0.000;2023-11-19T07:25:13;21.20;50.20
66708;DHT22;53622;0.000;0.000;2023-11-19T07:27:43;21.20;50.40
66708;DHT22;53622;0.000;0.000;2023-11-19T07:30:12;21.30;50.70
66708;DHT22;53622;0.000;0.000;2023-11-19T07:32:40;21.30;50.80
66708;DHT22;53622;0.000;0.000;2023-11-19T07:35:09;21.40;50.70
66708;DHT22;53622;0.000;0.000;2023-11-19T07:37:39;21.40;50.70
66708;DHT22;53622;0.000;0.000;2023-11-19T07:40:08;21.50;50.70
66708;DHT22;53622;0.000;0.000;2023-11-19T07:42:38;21.50;51.50
66708;DHT22;53622;0.000;0.000;2023-11-19T07:45:09;21.50;51.10
66708;DHT22;53622;0.000;0.000;2023-11-19T07:47:38;21.60;51.40
66708;DHT22;53622;0.000;0.000;2023-11-19T07:50:08;21.60;51.20
66708;DHT22;53622;0.000;0.000;2023-11-19T07:52:37;21.60;50.90
66708;DHT22;53622;0.000;0.000;2023-11-19T07:55:06;21.50;51.30
66708;DHT22;53622;0.000;0.000;2023-11-19T07:57:35;21.50;52.10
66708;DHT22;53622;0.000;0.000;2023-11-19T08:00:05;21.40;52.50
66708;DHT22;53622;0.000;0.000;2023-11-19T08:02:40;21.40;52.40
66708;DHT22;53622;0.000;0.000;2023-11-19T08:05:09;21.40;52.90
66708;DHT22;53622;0.000;0.000;2023-11-19T08:07:38;21.40;52.80
66708;DHT22;53622;0.000;0.000;2023-11-19T08:10:07;21.40;52.90
66708;DHT22;53622;0.000;0.000;2023-11-19T08:12:38;21.40;52.00
66708;DHT22;53622;0.000;0.000;2023-11-19T08:15:07;21.40;52.80
66708;DHT22;53622;0.000;0.000;2023-11-19T08:17:36;21.40;52.30
66708;DHT22;53622;0.000;0.000;2023-11-19T08:20:08;21.40;52.00
66708;DHT22;53622;0.000;0.000;2023-11-19T08:22:38;21.50;52.60
66708;DHT22;53622;0.000;0.000;2023-11-19T08:25:08;21.40;52.40
66708;DHT22;53622;0.000;0.000;2023-11-19T08:27:36;21.50;53.00
66708;DHT22;53622;0.000;0.000;2023-11-19T08:30:06;21.50;52.70
66708;DHT22;53622;0.000;0.000;2023-11-19T08:32:35;21.50;52.70
66708;DHT22;53622;0.000;0.000;2023-11-19T08:35:04;21.50;52.80
66708;DHT22;53622;0.000;0.000;2023-11-19T08:37:35;21.50;51.90
66708;DHT22;53622;0.000;0.000;2023-11-19T08:40:05;21.60;51.60
66708;DHT22;53622;0.000;0.000;2023-11-19T08:42:34;21.60;52.60
66708;DHT22;53622;0.000;0.000;2023-11-19T08:45:04;21.60;52.40
66708;DHT22;53622;0.000;0.000;2023-11-19T08:47:33;21.60;52.60
66708;DHT22;53622;0.000;0.000;2023-11-19T08:50:02;21.60;52.00
66708;DHT22;53622;0.000;0.000;2023-11-19T08:52:31;21.60;52.20
66708;DHT22;53622;0.000;0.000;2023-11-19T08:55:03;21.50;51.70
66708;DHT22;53622;0.000;0.000;2023-11-19T08:57:33;21.50;51.30
66708;DHT22;53622;0.000;0.000;2023-11-19T09:00:02;21.40;51.30
66708;DHT22;53622;0.000;0.000;2023-11-19T09:02:35;21.30;51.40
66708;DHT22;53622;0.000;0.000;2023-11-19T09:05:05;21.30;51.30
66708;DHT22;53622;0.000;0.000;2023-11-19T09:07:35;21.20;51.30
66708;DHT22;53622;0.000;0.000;2023-11-19T09:10:06;21.20;51.50
66708;DHT22;53622;0.000;0.000;2023-11-19T09:12:36;21.20;52.30
66708;DHT22;53622;0.000;0.000;2023-11-19T09:15:05;21.10;51.30
66708;DHT22;53622;0.000;0.000;2023-11-19T09:17:34;21.10;51.50
66708;DHT22;53622;0.000;0.000;2023-11-19T09:20:04;21.10;51.60
66708;DHT22;53622;0.000;0.000;2023-11-19T09:22:33;21.10;51.50
66708;DHT22;53622;0.000;0.000;2023-11-19T09:25:01;21.00;51.70
66708;DHT22;53622;0.000;0.000;2023-11-19T09:27:31;21.20;51.40
66708;DHT22;53622;0.000;0.000;2023-11-19T09:30:00;21.40;50.90
66708;DHT22;53622;0.000;0.000;2023-11-19T09:32:30;21.60;50.70
66708;DHT22;53622;0.000;0.000;2023-11-19T09:34:59;21.70;50.60
66708;DHT22;53622;0.000;0.000;2023-11-19T09:37:28;21.80;50.80
66708;DHT22;53622;0.000;0.000;2023-11-19T09:39:57;21.80;51.20
66708;DHT22;53622;0.000;0.000;2023-11-19T09:42:26;21.80;51.40
66708;DHT22;53622;0.000;0.000;2023-11-19T09:44:56;21.80;51.20
66708;DHT22;53622;0.000;0.000;2023-11-19T09:47:26;21.80;50.90
66708;DHT22;53622;0.000;0.000;2023-11-19T09:49:57;21.80;50.80
66708;DHT22;53622;0.000;0.000;2023-11-19T09:52:26;21.80;51.00
66708;DHT22;53622;0.000;0.000;2023-11-19T09:54:54;21.90;51.00
66708;DHT22;53622;0.000;0.000;2023-11-19T09:57:23;21.90;51.60
66708;DHT22;53622;0.000;0.000;2023-11-19T09:59:52;21.90;51.60
66708;DHT22;53622;0.000;0.000;2023-11-19T10:02:23;21.90;51.50
66708;DHT22;53622;0.000;0.000;2023-11-19T10:04:53;21.90;51.40
66708;DHT22;53622;0.000;0.000;2023-11-19T10:07:22;22.00;51.80
66708;DHT22;53622;0.000;0.000;2023-11-19T10:09:53;22.00;51.40
66708;DHT22;53622;0.000;0.000;2023-11-19T10:12:22;22.00;51.30
66708;DHT22;53622;0.000;0.000;2023-11-19T10:14:51;22.10;51.30
66708;DHT22;53622;0.000;0.000;2023-11-19T10:17:19;22.10;51.10
66708;DHT22;53622;0.000;0.000;2023-11-19T10:19:50;22.10;50.90
66708;DHT22;53622;0.000;0.000;2023-11-19T10:22:18;22.30;50.70
66708;DHT22;53622;0.000;0.000;2023-11-19T10:24:47;22.30;51.10
66708;DHT22;53622;0.000;0.000;2023-11-19T10:27:24;22.20;50.90
66708;DHT22;53622;0.000;0.000;2023-11-19T10:29:53;22.30;51.30
66708;DHT22;53622;0.000;0.000;2023-11-19T10:32:22;22.20;51.10
66708;DHT22;53622;0.000;0.000;2023-11-19T10:35:05;22.20;51.10
66708;DHT22;53622;0.000;0.000;2023-11-19T10:37:35;22.20;51.30
66708;DHT22;53622;0.000;0.000;2023-11-19T10:40:06;22.20;52.10
66708;DHT22;53622;0.000;0.000;2023-11-19T10:42:37;22.20;52.40
66708;DHT22;53622;0.000;0.000;2023-11-19T10:45:22;22.20;52.30
66708;DHT22;53622;0.000;0.000;2023-11-19T10:47:51;22.20;52.10
66708;DHT22;53622;0.000;0.000;2023-11-19T10:50:22;22.20;52.20
66708;DHT22;53622;0.000;0.000;2023-11-19T10:52:55;22.20;52.50
66708;DHT22;53622;0.000;0.000;2023-11-19T10:55:28;22.20;52.60
66708;DHT22;53622;0.000;0.000;2023-11-19T10:58:00;22.20;52.70
66708;DHT22;53622;0.000;0.000;2023-11-19T11:00:30;22.20;52.90
66708;DHT22;53622;0.000;0.000;2023-11-19T11:03:09;22.20;53.70
66708;DHT22;53622;0.000;0.000;2023-11-19T11:05:41;22.20;53.60
66708;DHT22;53622;0.000;0.000;2023-11-19T11:08:10;22.20;53.30
66708;DHT22;53622;0.000;0.000;2023-11-19T11:10:42;22.30;53.60
66708;DHT22;53622;0.000;0.000;2023-11-19T11:13:14;22.40;53.70
66708;DHT22;53622;0.000;0.000;2023-11-19T11:15:44;22.40;53.60
66708;DHT22;53622;0.000;0.000;2023-11-19T11:18:14;22.40;53.70
66708;DHT22;53622;0.000;0.000;2023-11-19T11:20:46;22.40;53.80
66708;DHT22;53622;0.000;0.000;2023-11-19T11:26:35;22.40;54.10
66708;DHT22;53622;0.000;0.000;2023-11-19T11:29:15;22.40;54.50
66708;DHT22;53622;0.000;0.000;2023-11-19T11:31:52;22.30;54.50
66708;DHT22;53622;0.000;0.000;2023-11-19T11:34:40;22.40;54.60
66708;DHT22;53622;0.000;0.000;2023-11-19T11:37:18;22.50;54.50
66708;DHT22;53622;0.000;0.000;2023-11-19T11:39:47;22.50;55.10
66708;DHT22;53622;0.000;0.000;2023-11-19T11:42:33;22.40;55.20
66708;DHT22;53622;0.000;0.000;2023-11-19T11:45:03;22.20;56.30
66708;DHT22;53622;0.000;0.000;2023-11-19T11:48:09;22.00;57.80
66708;DHT22;53622;0.000;0.000;2023-11-19T11:50:56;22.00;58.30
66708;DHT22;53622;0.000;0.000;2023-11-19T11:53:30;21.80;58.70
66708;DHT22;53622;0.000;0.000;2023-11-19T11:55:59;21.80;58.70
66708;DHT22;53622;0.000;0.000;2023-11-19T11:58:32;21.70;59.20
66708;DHT22;53622;0.000;0.000;2023-11-19T12:01:03;21.70;59.40
66708;DHT22;53622;0.000;0.000;2023-11-19T12:03:33;21.60;59.30
66708;DHT22;53622;0.000;0.000;2023-11-19T12:06:03;21.60;59.70
66708;DHT22;53622;0.000;0.000;2023-11-19T12:08:35;21.60;59.80
66708;DHT22;53622;0.000;0.000;2023-11-19T12:11:20;21.60;59.60
66708;DHT22;53622;0.000;0.000;2023-11-19T12:13:56;21.60;59.80
66708;DHT22;53622;0.000;0.000;2023-11-19T12:16:27;21.60;60.00
66708;DHT22;53622;0.000;0.000;2023-11-19T12:19:02;21.60;59.90
66708;DHT22;53622;0.000;0.000;2023-11-19T12:21:32;21.50;60.00
66708;DHT22;53622;0.000;0.000;2023-11-19T12:24:06;21.50;60.00
66708;DHT22;53622;0.000;0.000;2023-11-19T12:26:39;21.50;59.20
66708;DHT22;53622;0.000;0.000;2023-11-19T12:29:08;21.50;60.20
66708;DHT22;53622;0.000;0.000;2023-11-19T12:31:37;21.50;60.70
66708;DHT22;53622;0.000;0.000;2023-11-19T12:34:07;21.50;60.40
66708;DHT22;53622;0.000;0.000;2023-11-19T12:36:41;21.50;60.20
66708;DHT22;53622;0.000;0.000;2023-11-19T12:39:12;21.50;60.70
66708;DHT22;53622;0.000;0.000;2023-11-19T12:41:53;21.40;60.90
66708;DHT22;53622;0.000;0.000;2023-11-19T12:44:22;21.40;60.80
66708;DHT22;53622;0.000;0.000;2023-11-19T12:47:02;21.40;60.80
66708;DHT22;53622;0.000;0.000;2023-11-19T12:49:31;21.40;60.90
66708;DHT22;53622;0.000;0.000;2023-11-19T12:52:00;21.40;60.80
66708;DHT22;53622;0.000;0.000;2023-11-19T12:54:34;21.30;60.90
66708;DHT22;53622;0.000;0.000;2023-11-19T12:57:04;21.30;60.90
66708;DHT22;53622;0.000;0.000;2023-11-19T12:59:33;21.30;61.00
66708;DHT22;53622;0.000;0.000;2023-11-19T13:02:02;21.30;61.40
66708;DHT22;53622;0.000;0.000;2023-11-19T13:04:34;21.30;60.10
66708;DHT22;53622;0.000;0.000;2023-11-19T13:07:03;21.30;60.00
66708;DHT22;53622;0.000;0.000;2023-11-19T13:09:35;21.20;60.40
66708;DHT22;53622;0.000;0.000;2023-11-19T13:12:13;21.20;59.90
66708;DHT22;53622;0.000;0.000;2023-11-19T13:14:43;21.20;59.80
66708;DHT22;53622;0.000;0.000;2023-11-19T13:17:14;21.20;60.40
66708;DHT22;53622;0.000;0.000;2023-11-19T13:19:43;21.20;61.30
66708;DHT22;53622;0.000;0.000;2023-11-19T13:22:11;21.20;61.00
66708;DHT22;53622;0.000;0.000;2023-11-19T13:24:42;21.20;60.60
66708;DHT22;53622;0.000;0.000;2023-11-19T13:27:10;21.20;60.90
66708;DHT22;53622;0.000;0.000;2023-11-19T13:29:39;21.20;61.30
66708;DHT22;53622;0.000;0.000;2023-11-19T13:32:08;21.20;61.40
66708;DHT22;53622;0.000;0.000;2023-11-19T13:34:36;21.20;61.60
66708;DHT22;53622;0.000;0.000;2023-11-19T13:37:06;21.20;61.60
66708;DHT22;53622;0.000;0.000;2023-11-19T13:39:35;21.10;60.80
66708;DHT22;53622;0.000;0.000;2023-11-19T13:42:06;21.10;61.30
66708;DHT22;53622;0.000;0.000;2023-11-19T13:44:37;21.10;60.70
66708;DHT22;53622;0.000;0.000;2023-11-19T13:47:06;21.10;61.30
66708;DHT22;53622;0.000;0.000;2023-11-19T13:49:35;21.10;61.70
66708;DHT22;53622;0.000;0.000;2023-11-19T13:52:04;21.10;61.40
66708;DHT22;53622;0.000;0.000;2023-11-19T13:54:33;21.10;61.00
66708;DHT22;53622;0.000;0.000;2023-11-19T13:57:02;21.00;61.10
66708;DHT22;53622;0.000;0.000;2023-11-19T13:59:33;21.10;59.00
66708;DHT22;53622;0.000;0.000;2023-11-19T14:02:01;21.00;59.20
66708;DHT22;53622;0.000;0.000;2023-11-19T14:04:30;21.00;60.60
66708;DHT22;53622;0.000;0.000;2023-11-19T14:06:59;21.00;60.70
66708;DHT22;53622;0.000;0.000;2023-11-19T14:09:27;20.90;60.70
66708;DHT22;53622;0.000;0.000;2023-11-19T14:11:57;20.90;61.40
66708;DHT22;53622;0.000;0.000;2023-11-19T14:14:25;20.90;61.70
66708;DHT22;53622;0.000;0.000;2023-11-19T14:16:55;20.90;61.60
66708;DHT22;53622;0.000;0.000;2023-11-19T14:19:40;20.90;61.50
66708;DHT22;53622;0.000;0.000;2023-11-19T14:22:09;20.90;61.40
66708;DHT22;53622;0.000;0.000;2023-11-19T14:24:38;21.00;60.90
66708;DHT22;53622;0.000;0.000;2023-11-19T14:27:09;20.90;61.40
66708;DHT22;53622;0.000;0.000;2023-11-19T14:29:38;20.90;61.50
66708;DHT22;53622;0.000;0.000;2023-11-19T14:32:09;20.90;60.10
66708;DHT22;53622;0.000;0.000;2023-11-19T14:34:37;20.80;59.80
66708;DHT22;53622;0.000;0.000;2023-11-19T14:37:06;20.80;59.80
66708;DHT22;53622;0.000;0.000;2023-11-19T14:39:35;20.90;60.40
66708;DHT22;53622;0.000;0.000;2023-11-19T14:42:04;20.90;60.50
66708;DHT22;53622;0.000;0.000;2023-11-19T14:44:32;20.90;60.90
66708;DHT22;53622;0.000;0.000;2023-11-19T14:47:01;20.80;61.00
66708;DHT22;53622;0.000;0.000;2023-11-19T14:49:32;20.80;60.00
66708;DHT22;53622;0.000;0.000;2023-11-19T14:52:03;20.90;60.00
66708;DHT22;53622;0.000;0.000;2023-11-19T14:54:34;20.90;59.70
66708;DHT22;53622;0.000;0.000;2023-11-19T14:57:03;21.20;58.90
66708;DHT22;53622;0.000;0.000;2023-11-19T14:59:32;21.50;58.20
66708;DHT22;53622;0.000;0.000;2023-11-19T15:02:01;21.70;57.80
66708;DHT22;53622;0.000;0.000;2023-11-19T15:04:31;21.70;57.80
66708;DHT22;53622;0.000;0.000;2023-11-19T15:07:00;21.80;57.60
66708;DHT22;53622;0.000;0.000;2023-11-19T15:09:30;21.90;57.40
66708;DHT22;53622;0.000;0.000;2023-11-19T15:12:00;21.90;57.20
66708;DHT22;53622;0.000;0.000;2023-11-19T15:14:29;22.00;57.20
66708;DHT22;53622;0.000;0.000;2023-11-19T15:16:58;22.00;57.10
66708;DHT22;53622;0.000;0.000;2023-11-19T15:19:27;22.10;57.10
66708;DHT22;53622;0.000;0.000;2023-11-19T15:21:57;22.00;57.30
66708;DHT22;53622;0.000;0.000;2023-11-19T15:24:27;21.90;57.60
66708;DHT22;53622;0.000;0.000;2023-11-19T15:26:56;22.00;57.40
66708;DHT22;53622;0.000;0.000;2023-11-19T15:29:41;22.00;57.20
66708;DHT22;53622;0.000;0.000;2023-11-19T15:32:10;22.10;57.10
66708;DHT22;53622;0.000;0.000;2023-11-19T15:34:38;22.20;57.00
66708;DHT22;53622;0.000;0.000;2023-11-19T15:37:10;22.30;56.80
66708;DHT22;53622;0.000;0.000;2023-11-19T15:39:40;22.30;56.70
66708;DHT22;53622;0.000;0.000;2023-11-19T15:42:09;22.40;56.60
66708;DHT22;53622;0.000;0.000;2023-11-19T15:44:39;22.40;56.50
66708;DHT22;53622;0.000;0.000;2023-11-19T15:47:08;22.40;56.50
66708;DHT22;53622;0.000;0.000;2023-11-19T15:49:39;22.40;56.50
66708;DHT22;53622;0.000;0.000;2023-11-19T15:52:09;22.40;56.50
66708;DHT22;53622;0.000;0.000;2023-11-19T15:54:38;22.40;56.50
66708;DHT22;53622;0.000;0.000;2023-11-19T15:57:08;22.40;56.40
66708;DHT22;53622;0.000;0.000;2023-11-19T15:59:36;22.40;56.20
66708;DHT22;53622;0.000;0.000;2023-11-19T16:02:05;22.50;56.10
66708;DHT22;53622;0.000;0.000;2023-11-19T16:04:34;22.50;56.10
66708;DHT22;53622;0.000;0.000;2023-11-19T16:07:03;22.40;55.90